createdAt,value
2022-10-14T00:02:25.522Z,21.4
2022-10-14T00:07:26.329Z,21.4
2022-10-14T00:12:26.957Z,21.4
2022-10-14T00:17:27.653Z,21.5
2022-10-14T00:22:28.365Z,21.5
2022-10-14T00:27:29.061Z,21.5
2022-10-14T00:32:28.670Z,21.5
2022-10-14T00:37:28.952Z,21.4
2022-10-14T00:52:30.442Z,21.4
2022-10-14T01:07:31.492Z,21.4
2022-10-14T01:12:32.384Z,21.4
2022-10-14T01:17:33.116Z,21.4
2022-10-14T01:22:33.822Z,21.4
2022-10-14T01:27:34.520Z,21.4
2022-10-14T01:32:35.184Z,21.4
2022-10-14T01:37:35.897Z,21.4
2022-10-14T01:42:36.564Z,21.4
2022-10-14T01:47:37.357Z,21.4
2022-10-14T01:52:38.152Z,21.4
2022-10-14T01:57:38.980Z,21.4
2022-10-14T02:02:40.797Z,21.4
2022-10-14T02:07:41.449Z,21.4
2022-10-14T02:12:42.169Z,21.4
2022-10-14T02:17:42.766Z,21.4
2022-10-14T02:22:43.956Z,21.4
2022-10-14T02:27:44.470Z,21.4
2022-10-14T02:32:44.816Z,21.4
2022-10-14T02:37:45.395Z,21.4
2022-10-14T02:42:45.894Z,21.4
2022-10-14T02:47:45.663Z,21.4
2022-10-14T02:52:46.213Z,21.4
2022-10-14T02:57:47.023Z,21.4
2022-10-14T03:02:47.677Z,21.5
2022-10-14T03:07:48.303Z,21.4
2022-10-14T03:17:48.366Z,21.4
2022-10-14T14:33:09.488Z,22.7
2022-10-14T14:38:09.617Z,22.7
2022-10-14T14:48:10.404Z,22.7
2022-10-14T14:53:11.158Z,22.7
2022-10-14T15:08:12.777Z,23.1
2022-10-14T15:18:14.092Z,23.3
2022-10-14T15:28:14.356Z,23.3
2022-10-14T15:33:14.654Z,23.3
2022-10-14T15:38:16.265Z,23.3
2022-10-14T15:43:16.636Z,23.3
2022-10-14T15:48:15.210Z,23.2
2022-10-14T15:58:16.382Z,23.2
2022-10-14T16:08:17.650Z,22.7
2022-10-14T16:13:18.290Z,22.5
2022-10-14T16:18:19.006Z,22.4
2022-10-14T16:23:19.771Z,22.4
2022-10-14T16:33:20.994Z,22.2
2022-10-14T16:43:22.055Z,20.6
2022-10-14T16:48:22.693Z,20.5
2022-10-14T16:53:23.477Z,20.5
2022-10-14T16:58:23.363Z,20.5
2022-10-14T17:03:23.884Z,20.6
2022-10-14T17:08:24.630Z,20.6
2022-10-14T17:23:26.524Z,20.6
2022-10-14T17:33:27.936Z,20.9
2022-10-14T17:43:29.374Z,20.9
2022-10-14T17:48:29.669Z,20.9
2022-10-14T17:53:30.163Z,20.9
2022-10-14T17:58:30.994Z,20.9
2022-10-14T18:08:32.536Z,20.9
2022-10-14T18:33:36.149Z,20.9
2022-10-14T18:38:37.012Z,20.9
2022-10-14T18:48:38.332Z,20.9
2022-10-14T18:53:38.812Z,20.9
2022-10-14T19:08:40.884Z,21.1
2022-10-14T19:13:41.513Z,21.1
2022-10-14T19:18:42.183Z,21.2
2022-10-14T19:38:44.832Z,21.2
2022-10-14T19:43:45.498Z,21.2
2022-10-14T19:48:46.476Z,21.2
2022-10-14T19:53:47.248Z,21.2
2022-10-14T20:03:48.604Z,21.3
2022-10-14T20:08:49.058Z,21.2
2022-10-14T20:13:49.909Z,21.3
2022-10-14T20:23:51.506Z,21.2
2022-10-14T20:38:53.188Z,21.2
2022-10-14T20:43:53.827Z,21.2
2022-10-14T20:58:55.834Z,21.1
2022-10-14T21:03:55.873Z,19.7
2022-10-14T21:28:58.011Z,18.1
2022-10-14T21:43:59.804Z,17.6
2022-10-14T21:59:01.436Z,17.5
2022-10-14T22:04:02.030Z,17.4
2022-10-14T22:09:02.549Z,17.4
2022-10-14T22:14:03.373Z,17.2
2022-10-14T22:19:04.373Z,17.2
2022-10-14T22:34:05.710Z,17.1
2022-10-14T22:39:06.461Z,16.9
2022-10-14T22:44:07.170Z,16.9
2022-10-14T22:54:08.456Z,16.9
2022-10-14T22:59:09.153Z,16.8
2022-10-14T23:19:11.833Z,16.8
2022-10-14T23:24:12.373Z,16.8
2022-10-14T23:34:13.850Z,16.7
2022-10-14T23:39:14.423Z,16.6
2022-10-14T23:44:14.968Z,16.7
2022-10-14T23:49:25.800Z,16.6
2022-10-14T23:54:16.393Z,16.7
2022-10-14T23:59:17.112Z,16.6
